Time;durP1;ratioP1;P1;durP2;ratioP2;P2;SDS_P1;SDS_P2;PMS_P1;PMS_P2;Temp;Humidity;BMP_temperature;BMP_pressure;BME280_temperature;BME280_humidity;BME280_pressure;Samples;Min_cycle;Max_cycle;Signal;HPM_P1;HPM_P2
2022/08/11 00:01:12;;;;;;;7.25;6.32;;;;;;;19.86;94.88;94866.50;6303113;22;20163;-76
2022/08/11 00:03:45;;;;;;;9.23;6.85;;;;;;;19.80;95.95;94867.56;6303530;22;20168;-76
2022/08/11 00:06:14;;;;;;;13.65;11.13;;;;;;;19.90;95.34;94874.66;6302362;22;20190;-76
2022/08/11 00:08:44;;;;;;;17.42;14.35;;;;;;;20.00;94.70;94854.28;6303195;22;20164;-77
2022/08/11 00:11:12;;;;;;;32.83;24.30;;;;;;;20.10;94.10;94862.19;6302454;22;20585;-76
2022/08/11 00:13:42;;;;;;;32.38;24.42;;;;;;;20.24;93.27;94867.63;6303605;22;20188;-75
2022/08/11 00:16:14;;;;;;;26.17;19.92;;;;;;;20.16;92.95;94868.22;6303258;22;20178;-76
2022/08/11 00:18:42;;;;;;;27.05;21.33;;;;;;;19.99;94.14;94865.13;6303223;22;20183;-76
2022/08/11 00:21:10;;;;;;;48.92;37.47;;;;;;;19.83;95.23;94847.81;6303600;22;20175;-75
2022/08/11 00:23:45;;;;;;;37.05;27.85;;;;;;;19.85;95.42;94859.66;6302995;22;20215;-76
2022/08/11 00:26:13;;;;;;;27.58;23.33;;;;;;;19.65;96.66;94857.88;6303301;22;20159;-76
2022/08/11 00:28:41;;;;;;;27.05;21.15;;;;;;;19.43;98.80;94859.25;6302383;22;20175;-76
2022/08/11 00:31:11;;;;;;;36.50;26.25;;;;;;;19.33;100.00;94856.63;6303135;22;20716;-76
2022/08/11 00:33:39;;;;;;;27.05;21.73;;;;;;;19.39;99.61;94855.59;6303797;22;20156;-77
2022/08/11 00:36:11;;;;;;;31.65;23.33;;;;;;;19.43;99.90;94856.63;6303288;22;20168;-77
2022/08/11 00:38:41;;;;;;;11.30;8.43;;;;;;;19.37;99.95;94841.84;6302707;22;20157;-77
2022/08/11 00:41:20;;;;;;;10.88;7.10;;;;;;;19.46;100.00;94848.97;6303102;22;20199;-78
2022/08/11 00:44:04;;;;;;;8.68;7.13;;;;;;;19.45;99.98;94854.53;6303050;22;20160;-76
2022/08/11 00:46:46;;;;;;;8.40;6.40;;;;;;;19.46;99.99;94848.16;6302508;22;20163;-76
2022/08/11 00:49:25;;;;;;;9.75;6.53;;;;;;;19.52;99.35;94844.47;6303076;22;20148;-77
2022/08/11 00:52:08;;;;;;;9.57;6.60;;;;;;;19.57;99.04;94852.34;6303104;22;20155;-77
2022/08/11 00:55:07;;;;;;;8.13;6.43;;;;;;;19.63;98.70;94846.81;6302449;22;20164;-77
2022/08/11 00:58:26;;;;;;;9.45;7.75;;;;;;;19.48;99.51;94852.13;6280193;22;20540;-76
2022/08/11 01:01:27;;;;;;;19.02;13.18;;;;;;;19.45;100.00;94851.88;6178193;23;20167;-76
2022/08/11 01:04:20;;;;;;;16.08;10.35;;;;;;;19.41;100.00;94843.72;6131257;23;20166;-77
2022/08/11 01:07:04;;;;;;;11.60;9.40;;;;;;;19.49;100.00;94852.91;6283105;22;20168;-78
2022/08/11 01:09:49;;;;;;;11.65;8.75;;;;;;;19.58;99.58;94841.56;6303146;22;20149;-76
2022/08/11 01:12:35;;;;;;;10.32;7.75;;;;;;;19.59;99.02;94845.78;6303926;22;20156;-76
2022/08/11 01:15:28;;;;;;;9.88;6.95;;;;;;;19.58;99.25;94844.19;6303653;22;20210;-77
2022/08/11 01:18:37;;;;;;;11.32;7.63;;;;;;;19.58;99.13;94838.13;6305206;22;20235;-77
2022/08/11 01:21:35;;;;;;;9.73;7.18;;;;;;;19.55;99.14;94841.28;6303803;22;20512;-79
2022/08/11 01:24:45;;;;;;;9.07;6.85;;;;;;;19.63;98.96;94844.16;6304250;22;20235;-76
2022/08/11 01:27:36;;;;;;;8.38;6.88;;;;;;;19.65;99.09;94843.91;6304321;22;20159;-77
2022/08/11 01:30:17;;;;;;;8.60;7.30;;;;;;;19.72;98.43;94837.28;6303930;22;20500;-77
2022/08/11 01:33:10;;;;;;;10.55;7.65;;;;;;;19.74;98.12;94839.63;6304032;22;20164;-76
2022/08/11 01:36:24;;;;;;;10.18;6.80;;;;;;;19.71;98.36;94829.66;6304014;22;20156;-76
2022/08/11 01:39:23;;;;;;;8.82;6.78;;;;;;;19.67;98.40;94828.59;6249094;22;20199;-76
2022/08/11 01:45:36;;;;;;;8.55;7.50;;;;;;;19.67;98.43;94832.03;6264744;22;20221;-78
2022/08/11 01:48:09;;;;;;;8.60;7.43;;;;;;;19.67;98.48;94836.50;6304644;22;20247;-78
2022/08/11 01:51:08;;;;;;;8.10;6.97;;;;;;;19.56;98.53;94832.34;6304251;22;20156;-77
2022/08/11 01:53:51;;;;;;;12.05;7.35;;;;;;;19.57;99.01;94831.25;6304555;22;20164;-79
2022/08/11 01:56:56;;;;;;;8.20;7.07;;;;;;;19.54;98.63;94829.94;6304191;22;20160;-79
2022/08/11 01:59:28;;;;;;;10.43;7.70;;;;;;;19.39;99.74;94827.38;6303944;22;20654;-78
2022/08/11 02:02:44;;;;;;;12.02;7.70;;;;;;;19.22;100.00;94824.19;6306234;22;20160;-79
2022/08/11 02:05:23;;;;;;;9.02;7.38;;;;;;;19.19;100.00;94822.13;6306564;22;20239;-79
2022/08/11 02:07:58;;;;;;;10.18;7.38;;;;;;;19.20;100.00;94828.97;6306880;22;20164;-79
2022/08/11 02:13:24;;;;;;;11.55;7.72;;;;;;;19.36;100.00;94837.63;6306665;22;20206;-78
2022/08/11 02:16:03;;;;;;;11.43;6.90;;;;;;;19.24;100.00;94830.81;6306066;22;20210;-77
2022/08/11 02:24:16;;;;;;;12.32;7.47;;;;;;;19.13;100.00;94831.09;6306404;22;20163;-77
2022/08/11 02:26:50;;;;;;;9.18;7.30;;;;;;;19.13;100.00;94831.88;6305141;22;20163;-77
2022/08/11 02:29:21;;;;;;;10.68;7.18;;;;;;;19.21;100.00;94826.06;6306110;22;20550;-79
2022/08/11 02:34:59;;;;;;;10.25;7.53;;;;;;;19.27;100.00;94835.56;6305765;22;20159;-76
2022/08/11 02:37:34;;;;;;;11.07;8.30;;;;;;;19.22;100.00;94822.38;6305532;22;20607;-76
2022/08/11 02:40:15;;;;;;;9.35;7.70;;;;;;;19.27;100.00;94826.84;6305370;22;20184;-76
2022/08/11 02:43:01;;;;;;;12.15;7.43;;;;;;;19.29;100.00;94830.00;6305447;22;20163;-75
2022/08/11 02:45:37;;;;;;;9.40;7.05;;;;;;;19.27;100.00;94829.50;6305275;22;20161;-76
2022/08/11 02:51:14;;;;;;;10.60;7.80;;;;;;;19.33;100.00;94827.63;6305731;22;20152;-77
2022/08/11 02:53:49;;;;;;;11.05;7.90;;;;;;;19.33;100.00;94817.88;6305271;22;20160;-76
2022/08/11 02:56:27;;;;;;;11.90;7.25;;;;;;;19.32;99.96;94831.31;6305781;22;20163;-76
2022/08/11 03:01:52;;;;;;;9.60;7.50;;;;;;;19.19;100.00;94824.75;6305880;22;20155;-77
2022/08/11 03:04:27;;;;;;;9.80;7.28;;;;;;;19.20;100.00;94828.97;6305361;22;20164;-76
2022/08/11 03:07:01;;;;;;;9.45;7.70;;;;;;;19.12;100.00;94825.03;6304861;22;20156;-77
2022/08/11 03:09:43;;;;;;;12.27;7.45;;;;;;;19.07;100.00;94834.78;6305953;22;20152;-77
2022/08/11 03:18:02;;;;;;;14.25;8.35;;;;;;;19.09;100.00;94830.03;6304248;22;20673;-77
2022/08/11 03:20:38;;;;;;;13.25;7.47;;;;;;;19.05;100.00;94824.50;6305116;22;20172;-77
2022/08/11 03:23:11;;;;;;;12.73;8.43;;;;;;;19.00;100.00;94829.78;6304914;22;20666;-77
2022/08/11 03:25:49;;;;;;;12.68;7.50;;;;;;;18.98;100.00;94836.38;6305962;22;20802;-78
2022/08/11 03:28:27;;;;;;;11.02;8.27;;;;;;;18.96;100.00;94825.34;6305315;22;20156;-77
2022/08/11 03:31:08;;;;;;;14.15;8.50;;;;;;;18.97;100.00;94821.63;6305105;22;20156;-77
2022/08/11 03:36:51;;;;;;;13.20;8.88;;;;;;;18.96;100.00;94822.69;6304607;22;20554;-73
2022/08/11 03:39:23;;;;;;;14.32;8.52;;;;;;;19.02;100.00;94824.25;6304982;22;20156;-73
2022/08/11 03:42:00;;;;;;;15.40;8.80;;;;;;;19.00;100.00;94827.16;6304155;22;20856;-72
2022/08/11 03:44:43;;;;;;;16.02;9.20;;;;;;;18.98;100.00;94831.91;6304292;22;20178;-73
2022/08/11 03:47:26;;;;;;;13.85;9.05;;;;;;;18.94;100.00;94836.13;6304875;22;20657;-73
2022/08/11 03:50:02;;;;;;;14.98;9.45;;;;;;;19.01;100.00;94833.22;6304324;22;20148;-72
2022/08/11 03:52:44;;;;;;;12.80;9.10;;;;;;;18.99;100.00;94838.75;6305168;22;20151;-73
2022/08/11 03:55:21;;;;;;;13.07;9.20;;;;;;;18.99;100.00;94832.72;6304974;22;20161;-74
2022/08/11 03:58:19;;;;;;;10.48;8.82;;;;;;;18.99;100.00;94833.47;6304065;22;20641;-72
2022/08/11 04:01:20;;;;;;;11.93;8.88;;;;;;;19.03;100.00;94834.53;6304507;22;20196;-73
2022/08/11 04:04:23;;;;;;;13.93;8.73;;;;;;;18.98;100.00;94836.38;6304324;22;20157;-73
2022/08/11 04:07:24;;;;;;;16.23;9.40;;;;;;;18.97;100.00;94840.84;6304538;22;20155;-72
2022/08/11 04:10:47;;;;;;;14.60;7.53;;;;;;;18.93;100.00;94839.78;6254629;22;20163;-74
2022/08/11 04:15:58;;;;;;;12.50;7.72;;;;;;;18.87;100.00;94840.09;6157810;23;20649;-74
2022/08/11 04:16:53;;;;;;;10.40;8.30;;;;;;;18.89;100.00;94838.75;6175567;22;20250;-77
2022/08/11 04:20:02;;;;;;;10.55;8.43;;;;;;;18.78;100.00;94825.88;6303694;22;20585;-73
2022/08/11 04:23:02;;;;;;;12.73;8.23;;;;;;;18.88;100.00;94839.00;6259116;22;20196;-73
2022/08/11 04:26:05;;;;;;;12.60;7.93;;;;;;;18.89;100.00;94843.22;6303496;22;20157;-76
2022/08/11 04:28:59;;;;;;;11.35;8.70;;;;;;;18.99;100.00;94846.66;6257681;22;20176;-72
2022/08/11 04:31:45;;;;;;;18.67;9.82;;;;;;;18.96;100.00;94854.31;6304051;22;20152;-72
2022/08/11 04:34:37;;;;;;;19.75;9.68;;;;;;;18.95;100.00;94848.25;6304345;22;20161;-73
2022/08/11 04:37:33;;;;;;;14.27;9.10;;;;;;;18.99;100.00;94848.50;6273810;22;20634;-73
2022/08/11 04:40:34;;;;;;;11.18;8.73;;;;;;;19.02;100.00;94847.94;6287999;22;20263;-73
2022/08/11 04:43:40;;;;;;;16.02;9.23;;;;;;;19.02;100.00;94850.59;6299813;22;20533;-73
2022/08/11 04:46:42;;;;;;;12.60;8.80;;;;;;;19.08;100.00;94855.59;6299560;22;20167;-73
2022/08/11 05:03:18;;;;;;;11.40;9.30;;;;;;;19.46;99.34;94856.88;6300620;22;20163;-73
2022/08/11 05:06:27;;;;;;;16.33;9.98;;;;;;;19.54;98.97;94851.03;6300014;22;20168;-75
2022/08/11 05:09:22;;;;;;;15.60;9.65;;;;;;;19.53;98.64;94853.97;6293090;22;20229;-73
2022/08/11 05:12:07;;;;;;;15.00;9.57;;;;;;;19.50;98.84;94850.03;6300537;22;20180;-74
2022/08/11 05:37:11;;;;;;;12.95;9.15;;;;;;;18.99;100.00;94851.91;6301606;22;20254;-73
2022/08/11 05:56:32;;;;;;;11.07;8.40;;;;;;;19.84;100.00;94850.16;6302439;22;20196;-74
2022/08/11 05:59:00;;;;;;;12.93;8.98;;;;;;;19.91;99.29;94841.97;6302289;22;20175;-72
2022/08/11 06:01:31;;;;;;;11.77;8.48;;;;;;;19.78;100.00;94845.97;6301974;22;20196;-73
2022/08/11 06:04:15;;;;;;;13.75;7.95;;;;;;;19.64;100.00;94845.75;6301810;22;20167;-74
2022/08/11 06:06:50;;;;;;;11.68;9.15;;;;;;;19.59;100.00;94842.34;6300861;22;20164;-73
2022/08/11 06:09:23;;;;;;;13.75;8.23;;;;;;;19.49;100.00;94851.06;6300506;22;20618;-72
2022/08/11 06:11:51;;;;;;;13.18;8.75;;;;;;;19.47;100.00;94844.47;6302053;22;20330;-75
2022/08/11 06:14:19;;;;;;;14.02;8.32;;;;;;;19.64;100.00;94844.97;6301911;22;20169;-76
2022/08/11 06:16:49;;;;;;;12.15;8.30;;;;;;;19.75;100.00;94836.75;6301307;22;20172;-76
2022/08/11 06:19:16;;;;;;;10.13;8.18;;;;;;;19.76;100.00;94845.44;6302517;22;20152;-77
2022/08/11 06:21:46;;;;;;;9.43;8.02;;;;;;;19.78;100.00;94833.56;6301743;22;20206;-76
2022/08/11 06:24:15;;;;;;;10.98;8.23;;;;;;;19.83;100.00;94837.25;6302306;22;20637;-76
2022/08/11 06:26:48;;;;;;;11.48;8.60;;;;;;;19.85;100.00;94835.13;6303157;22;20168;-76
2022/08/11 06:29:17;;;;;;;13.00;7.88;;;;;;;19.85;100.00;94832.47;6302393;22;20160;-77
2022/08/11 06:31:53;;;;;;;13.70;8.10;;;;;;;19.89;100.00;94836.13;6302063;22;20172;-76
2022/08/11 06:34:33;;;;;;;14.73;8.18;;;;;;;20.09;100.00;94836.03;6302072;22;20942;-75
2022/08/11 06:37:20;;;;;;;13.93;8.60;;;;;;;20.68;96.83;94833.31;6302594;22;20175;-76
2022/08/11 06:39:57;;;;;;;20.45;8.27;;;;;;;20.99;94.46;94844.41;6302240;22;20157;-79
2022/08/11 06:42:48;;;;;;;12.48;8.68;;;;;;;21.00;92.47;94843.38;6302788;22;20156;-74
2022/08/11 06:45:26;;;;;;;26.00;9.35;;;;;;;20.84;93.87;94842.69;6303197;22;20168;-78
2022/08/11 06:47:59;;;;;;;19.05;7.90;;;;;;;20.86;94.59;94843.22;6302229;22;20167;-79
2022/08/11 06:53:17;;;;;;;9.40;6.78;;;;;;;20.99;91.61;94839.94;6302275;22;20245;-73
2022/08/11 07:01:27;;;;;;;8.75;6.65;;;;;;;21.31;88.05;94847.31;6302253;22;20175;-73
2022/08/11 07:04:06;;;;;;;11.82;6.03;;;;;;;21.37;88.58;94841.72;6302455;22;20160;-79
2022/08/11 07:15:40;;;;;;;7.28;6.57;;;;;;;21.44;86.76;94839.50;6302975;22;20156;-73
2022/08/11 07:28:56;;;;;;;7.07;6.38;;;;;;;23.07;77.30;94852.19;6301481;22;20155;-74
2022/08/11 07:31:31;;;;;;;7.28;6.57;;;;;;;23.03;77.04;94848.56;6300893;22;20841;-74
2022/08/11 07:34:08;;;;;;;7.45;6.32;;;;;;;22.89;77.20;94853.00;6301676;22;20159;-73
2022/08/11 07:36:39;;;;;;;8.60;6.30;;;;;;;22.87;77.15;94842.69;6302469;22;20159;-74
2022/08/11 07:39:11;;;;;;;7.40;6.40;;;;;;;22.85;75.66;94852.03;6301629;22;20187;-75
2022/08/11 07:41:39;;;;;;;7.28;6.57;;;;;;;22.86;76.46;94851.72;6302254;22;20172;-74
2022/08/11 07:44:10;;;;;;;9.38;6.00;;;;;;;22.94;81.25;94834.38;6301007;22;20200;-73
2022/08/11 07:54:59;;;;;;;19.13;5.43;;;;;;;22.81;70.00;94837.75;6301672;22;20160;-75
2022/08/11 08:19:32;;;;;;;7.90;5.70;;;;;;;23.16;69.27;94830.00;6300534;22;20160;-76
2022/08/11 08:22:00;;;;;;;6.25;5.38;;;;;;;23.09;70.96;94826.94;6301425;22;20207;-75
2022/08/11 08:24:28;;;;;;;7.60;5.68;;;;;;;23.39;69.29;94819.56;6302114;22;20178;-83
2022/08/11 08:27:00;;;;;;;6.10;5.50;;;;;;;23.54;68.23;94822.72;6302613;22;20175;-81
2022/08/11 08:32:16;;;;;;;6.45;5.20;;;;;;;24.04;66.07;94822.81;6304508;22;20155;-83
2022/08/11 08:34:43;;;;;;;5.80;5.07;;;;;;;24.15;64.16;94824.19;6303907;22;20165;-85
2022/08/11 08:37:11;;;;;;;6.03;4.95;;;;;;;24.10;64.63;94816.28;6304139;22;20564;-82
2022/08/11 08:39:38;;;;;;;7.50;4.90;;;;;;;24.20;62.86;94827.50;6302224;22;20161;-83
2022/08/11 08:42:11;;;;;;;7.82;4.80;;;;;;;24.15;63.06;94818.88;6303511;22;20188;-81
2022/08/11 08:44:42;;;;;;;6.22;5.32;;;;;;;24.03;63.04;94816.69;6303362;22;20157;-81
2022/08/11 08:47:14;;;;;;;7.28;5.88;;;;;;;23.99;64.53;94814.91;6303033;22;20163;-81
2022/08/11 08:49:48;;;;;;;5.80;5.28;;;;;;;24.02;64.56;94804.50;6305894;22;20236;-86
2022/08/11 08:52:19;;;;;;;6.97;5.78;;;;;;;24.05;65.90;94806.53;6304225;22;20606;-83
2022/08/11 08:54:52;;;;;;;6.28;5.50;;;;;;;24.19;65.47;94814.50;6304519;22;20156;-81
2022/08/11 08:57:24;;;;;;;6.68;5.00;;;;;;;24.46;64.06;94813.66;6303276;22;20238;-80
2022/08/11 08:59:54;;;;;;;6.50;5.20;;;;;;;24.40;62.60;94813.00;6301424;22;20163;-78
2022/08/11 09:02:27;;;;;;;5.63;5.13;;;;;;;24.40;62.60;94809.53;6301035;22;20579;-78
2022/08/11 09:04:56;;;;;;;8.07;4.95;;;;;;;24.56;63.80;94813.44;6300812;22;20164;-77
2022/08/11 09:07:27;;;;;;;6.13;5.10;;;;;;;24.73;64.02;94811.66;6300484;22;20172;-79
2022/08/11 09:09:58;;;;;;;6.25;5.20;;;;;;;24.96;60.83;94809.84;6301165;22;20214;-75
2022/08/11 09:12:32;;;;;;;7.65;5.50;;;;;;;24.90;60.06;94807.59;6301063;22;20149;-77
2022/08/11 09:15:05;;;;;;;6.80;4.80;;;;;;;24.79;61.30;94804.38;6300445;22;20156;-78
2022/08/11 09:17:38;;;;;;;6.28;4.70;;;;;;;24.94;61.82;94805.88;6301657;22;20631;-78
2022/08/11 09:20:08;;;;;;;5.90;5.03;;;;;;;25.13;60.45;94803.81;6301393;22;20160;-78
2022/08/11 09:28:16;;;;;;;4.88;4.35;;;;;;;25.06;56.50;94809.56;6299818;22;20246;-78
2022/08/11 09:30:52;;;;;;;5.70;4.85;;;;;;;25.17;56.70;94796.78;6299441;22;20156;-78
2022/08/11 09:33:22;;;;;;;5.50;4.22;;;;;;;25.62;55.17;94813.47;6301757;22;20548;-79
2022/08/11 09:35:53;;;;;;;4.88;4.05;;;;;;;25.99;51.59;94802.28;6300705;22;20160;-78
2022/08/11 09:41:13;;;;;;;7.15;4.47;;;;;;;26.18;50.87;94800.13;6301314;22;20191;-78
2022/08/11 09:46:34;;;;;;;6.22;4.82;;;;;;;26.17;54.91;94782.59;6301223;22;20164;-78
2022/08/11 09:49:05;;;;;;;6.43;5.20;;;;;;;26.07;53.33;94785.53;6300914;22;20152;-77
2022/08/11 09:51:35;;;;;;;6.68;5.32;;;;;;;25.94;54.29;94779.22;6302167;22;20156;-77
2022/08/11 09:54:07;;;;;;;7.13;5.55;;;;;;;25.99;56.11;94791.63;6301749;22;20176;-78
2022/08/11 09:59:22;;;;;;;6.20;5.03;;;;;;;26.24;49.91;94788.25;6300524;22;20842;-77
2022/08/11 10:01:59;;;;;;;7.63;5.25;;;;;;;26.12;53.43;94782.69;6301129;22;20198;-77
2022/08/11 10:04:33;;;;;;;6.13;5.45;;;;;;;26.03;53.70;94781.13;6301888;22;20199;-76
2022/08/11 10:07:02;;;;;;;7.45;5.72;;;;;;;26.37;55.36;94774.00;6300559;22;20160;-78
2022/08/11 10:09:34;;;;;;;9.52;6.30;;;;;;;26.89;54.18;94768.63;6302001;22;20180;-86
2022/08/11 10:12:02;;;;;;;7.80;5.45;;;;;;;26.84;51.36;94768.81;6300279;22;20184;-77
2022/08/11 10:17:19;;;;;;;9.18;5.15;;;;;;;26.95;52.54;94776.16;6300423;22;20171;-77
2022/08/11 10:19:48;;;;;;;5.47;4.80;;;;;;;27.19;53.35;94775.59;6300579;22;20529;-77
2022/08/11 10:27:58;;;;;;;5.03;4.53;;;;;;;27.91;48.28;94775.44;6250169;22;20202;-77
2022/08/11 10:35:58;;;;;;;4.80;4.30;;;;;;;28.01;45.60;94777.75;6302445;22;20581;-78
2022/08/11 10:38:26;;;;;;;6.07;5.05;;;;;;;27.62;46.72;94778.13;6302258;22;20179;-78
2022/08/11 10:43:39;;;;;;;8.65;4.60;;;;;;;27.37;45.34;94766.44;6302424;22;20148;-77
2022/08/11 10:48:56;;;;;;;4.90;4.32;;;;;;;28.05;45.57;94761.91;6302406;22;20163;-78
2022/08/11 10:59:41;;;;;;;9.48;4.85;;;;;;;28.86;43.89;94756.81;6302670;22;20163;-78
2022/08/11 11:02:14;;;;;;;5.85;4.13;;;;;;;29.01;44.00;94752.72;6301800;22;20195;-78
2022/08/11 11:04:57;;;;;;;6.70;5.03;;;;;;;28.97;43.16;94757.97;6303166;22;20548;-78
2022/08/11 11:07:36;;;;;;;5.47;4.47;;;;;;;29.22;43.55;94764.97;6303210;22;20240;-77
2022/08/11 11:10:08;;;;;;;5.25;4.75;;;;;;;29.33;43.84;94756.50;6302085;22;20191;-77
2022/08/11 11:18:21;;;;;;;6.20;4.57;;;;;;;29.72;40.58;94753.16;6301220;22;20298;-78
2022/08/11 11:20:53;;;;;;;8.10;5.20;;;;;;;29.47;40.59;94751.59;6301826;22;20156;-73
2022/08/11 11:23:27;;;;;;;7.68;4.90;;;;;;;29.07;42.31;94748.72;6301801;22;21072;-73
2022/08/11 11:26:27;;;;;;;8.02;4.30;;;;;;;29.22;42.84;94761.47;6302419;22;20164;-74
2022/08/11 11:29:20;;;;;;;7.63;4.68;;;;;;;29.26;43.36;94746.34;6296620;22;20168;-73
2022/08/11 11:31:56;;;;;;;4.45;4.05;;;;;;;29.52;42.24;94743.34;6302279;22;20152;-74
2022/08/11 11:34:51;;;;;;;5.35;4.40;;;;;;;29.57;41.80;94741.22;6301393;22;20160;-75
2022/08/11 11:37:19;;;;;;;6.15;4.75;;;;;;;29.85;43.00;94745.91;6301917;22;20546;-74
2022/08/11 11:39:47;;;;;;;6.70;4.80;;;;;;;29.83;41.49;94745.47;6302172;22;20751;-75
2022/08/11 11:42:14;;;;;;;7.63;5.00;;;;;;;30.02;41.37;94745.66;6302127;22;20192;-74
2022/08/11 11:44:45;;;;;;;7.47;4.40;;;;;;;29.96;41.87;94739.00;6302292;22;20577;-74
2022/08/11 11:47:13;;;;;;;6.70;5.03;;;;;;;30.11;41.87;94738.28;6301416;22;20156;-75
2022/08/11 11:49:43;;;;;;;5.00;4.50;;;;;;;30.26;40.99;94737.56;6302104;22;20168;-73
2022/08/11 11:52:16;;;;;;;6.90;4.63;;;;;;;30.01;41.24;94739.53;6302109;22;20202;-74
2022/08/11 11:54:43;;;;;;;6.05;4.90;;;;;;;29.58;42.03;94725.94;6301939;22;20156;-74
2022/08/11 12:02:41;;;;;;;6.55;4.22;;;;;;;29.11;43.58;94737.03;6301359;22;20520;-74
2022/08/11 12:05:10;;;;;;;5.10;4.68;;;;;;;28.85;43.86;94736.53;6301150;22;20176;-74
2022/08/11 12:10:25;;;;;;;6.47;5.13;;;;;;;29.53;42.45;94726.91;6301446;22;20156;-75
2022/08/11 12:15:37;;;;;;;5.72;4.15;;;;;;;29.92;41.68;94722.81;6302632;22;20501;-74
2022/08/11 12:18:05;;;;;;;4.82;4.32;;;;;;;30.40;41.36;94726.47;6300558;22;20179;-74
2022/08/11 12:20:33;;;;;;;6.32;4.43;;;;;;;30.81;40.59;94731.47;6302240;22;20164;-74
2022/08/11 12:29:05;;;;;;;5.25;4.00;;;;;;;30.48;41.12;94723.66;6301120;22;20681;-74
2022/08/11 12:31:33;;;;;;;5.28;4.20;;;;;;;30.25;40.99;94718.00;6301447;22;20168;-75
2022/08/11 12:34:04;;;;;;;4.93;4.43;;;;;;;30.22;40.70;94724.06;6300775;22;20172;-76
2022/08/11 12:36:36;;;;;;;4.40;3.92;;;;;;;30.02;41.73;94722.31;6301584;22;20176;-74
2022/08/11 12:39:07;;;;;;;5.03;4.20;;;;;;;29.72;42.43;94723.69;6300637;22;20167;-75
2022/08/11 12:47:09;;;;;;;4.53;3.90;;;;;;;28.14;45.63;94736.66;6300924;22;20159;-75
2022/08/11 12:52:27;;;;;;;6.30;4.00;;;;;;;27.18;49.56;94725.22;6301528;22;20244;-75
2022/08/11 12:54:59;;;;;;;9.77;4.55;;;;;;;27.02;50.42;94728.41;6301726;22;20562;-74
2022/08/11 13:05:48;;;;;;;7.30;3.88;;;;;;;26.93;49.82;94714.28;6301693;22;20226;-74
2022/08/11 13:08:17;;;;;;;5.70;3.40;;;;;;;27.57;47.80;94712.31;6300407;22;20164;-74
2022/08/11 13:13:29;;;;;;;6.63;3.60;;;;;;;28.62;47.53;94725.41;6302306;22;20150;-74
2022/08/11 13:15:58;;;;;;;4.60;3.90;;;;;;;28.31;46.57;94725.03;6301101;22;20175;-73
2022/08/11 13:18:26;;;;;;;6.78;4.10;;;;;;;27.96;47.29;94724.50;6300052;22;20172;-72
2022/08/11 13:20:55;;;;;;;4.82;3.60;;;;;;;28.05;47.71;94727.91;6301155;22;20168;-75
2022/08/11 13:23:24;;;;;;;5.68;3.70;;;;;;;28.52;46.25;94727.69;6301196;22;20200;-80
2022/08/11 13:25:54;;;;;;;6.35;3.80;;;;;;;28.89;45.14;94724.03;6301362;22;20172;-75
2022/08/11 13:28:22;;;;;;;7.10;3.53;;;;;;;28.89;45.21;94717.91;6301110;22;20648;-74
2022/08/11 13:33:39;;;;;;;9.00;3.50;;;;;;;29.08;44.29;94715.50;6301626;22;20198;-75
2022/08/11 13:36:07;;;;;;;5.50;3.75;;;;;;;29.38;43.77;94719.56;6301528;22;20156;-75
2022/08/11 13:38:36;;;;;;;5.50;3.33;;;;;;;29.55;43.44;94713.22;6300883;22;20168;-74
2022/08/11 13:41:36;;;;;;;4.00;3.60;;;;;;;29.57;43.42;94706.38;6301419;22;20168;-75
2022/08/11 13:43:53;;;;;;;3.60;3.30;;;;;;;29.78;41.89;94706.25;6300852;22;20273;-75
2022/08/11 13:46:21;;;;;;;5.63;3.40;;;;;;;29.71;41.90;94698.00;6300986;22;20506;-74
2022/08/11 13:48:49;;;;;;;4.90;3.53;;;;;;;29.91;41.46;94707.81;6299567;22;20626;-74
2022/08/11 13:51:33;;;;;;;3.65;3.33;;;;;;;29.79;41.62;94700.56;6300720;22;20230;-75
2022/08/11 13:54:04;;;;;;;3.90;3.53;;;;;;;29.84;41.29;94701.47;6301749;22;20163;-75
2022/08/11 13:56:33;;;;;;;4.53;3.35;;;;;;;30.00;41.44;94697.75;6302332;22;20156;-74
2022/08/11 13:59:02;;;;;;;3.50;3.20;;;;;;;30.18;40.77;94700.94;6302663;22;20168;-73
2022/08/11 14:01:32;;;;;;;3.83;3.28;;;;;;;30.46;39.11;94703.66;6303528;22;20175;-73
2022/08/11 14:04:06;;;;;;;4.15;3.30;;;;;;;30.39;38.31;94693.50;6302769;22;20164;-74
2022/08/11 14:06:35;;;;;;;5.38;3.10;;;;;;;30.44;38.55;94697.84;6302749;22;20254;-74
2022/08/11 14:09:08;;;;;;;3.40;3.10;;;;;;;30.52;38.37;94691.56;6302157;22;20172;-74
2022/08/11 14:14:25;;;;;;;5.13;3.40;;;;;;;30.22;38.67;94683.81;6302716;22;20222;-74
2022/08/11 14:16:56;;;;;;;3.88;3.30;;;;;;;30.25;38.49;94693.09;6302857;22;20156;-80
2022/08/11 14:19:26;;;;;;;4.50;3.13;;;;;;;30.14;39.14;94694.69;6302093;22;20188;-75
2022/08/11 14:22:08;;;;;;;4.88;3.50;;;;;;;30.27;38.53;94690.84;6302683;22;20199;-75
2022/08/11 14:24:38;;;;;;;4.75;3.60;;;;;;;30.12;39.49;94689.69;6303408;22;20157;-74
2022/08/11 14:27:07;;;;;;;6.60;3.72;;;;;;;29.93;38.67;94692.16;6303412;22;20182;-76
2022/08/11 14:29:37;;;;;;;4.65;3.90;;;;;;;29.80;39.47;94686.06;6305826;22;20164;-77
2022/08/11 14:32:07;;;;;;;4.63;4.05;;;;;;;29.61;40.49;94690.44;6306043;22;20156;-76
2022/08/11 14:34:36;;;;;;;4.63;4.15;;;;;;;29.80;40.36;94683.38;6306253;22;20255;-77
2022/08/11 14:37:09;;;;;;;7.43;4.32;;;;;;;30.11;39.46;94693.47;6305412;22;20168;-78
2022/08/11 14:39:42;;;;;;;4.15;3.70;;;;;;;29.93;40.12;94683.38;6306252;22;20243;-78
2022/08/11 14:47:47;;;;;;;6.63;3.92;;;;;;;29.71;41.67;94679.22;6304537;22;20595;-76
2022/08/11 14:50:21;;;;;;;5.10;3.90;;;;;;;29.91;41.56;94681.00;6306326;22;20160;-77
2022/08/11 14:52:51;;;;;;;4.18;3.78;;;;;;;30.06;41.41;94680.31;6306099;22;20198;-77
2022/08/11 14:58:09;;;;;;;4.45;3.70;;;;;;;29.90;40.54;94676.75;6306483;22;20557;-77
2022/08/11 15:00:37;;;;;;;4.90;4.40;;;;;;;29.74;41.61;94676.66;6305790;22;20661;-77
2022/08/11 15:03:10;;;;;;;4.40;4.00;;;;;;;29.74;40.23;94676.66;6305606;22;20195;-77
2022/08/11 15:05:40;;;;;;;4.15;3.78;;;;;;;29.56;41.21;94677.25;6305855;22;20594;-81
2022/08/11 15:08:09;;;;;;;6.18;4.20;;;;;;;29.63;41.19;94661.38;6304798;22;20238;-77
2022/08/11 15:10:39;;;;;;;4.20;3.80;;;;;;;29.91;40.91;94669.50;6301288;22;20164;-78
2022/08/11 15:13:17;;;;;;;4.60;3.78;;;;;;;29.79;39.52;94670.28;6306159;22;20164;-77
2022/08/11 15:18:31;;;;;;;5.20;4.07;;;;;;;29.38;40.68;94667.91;6306135;22;20156;-76
2022/08/11 15:37:53;;;;;;;4.53;4.10;;;;;;;27.20;46.27;94664.25;6305730;22;20254;-77
2022/08/11 15:46:09;;;;;;;5.30;4.03;;;;;;;27.04;45.87;94667.47;6305610;22;20158;-77
2022/08/11 15:48:45;;;;;;;4.88;3.92;;;;;;;26.88;46.61;94661.09;6305522;22;20156;-77
2022/08/11 15:51:21;;;;;;;4.90;4.00;;;;;;;26.69;47.05;94659.91;6305507;22;20163;-78
2022/08/11 15:53:52;;;;;;;5.82;4.35;;;;;;;26.54;47.50;94666.53;6305253;22;20179;-78
2022/08/11 15:56:22;;;;;;;4.82;4.15;;;;;;;26.50;48.00;94668.25;6305516;22;20156;-77
2022/08/11 16:04:29;;;;;;;4.35;3.58;;;;;;;26.44;47.20;94661.50;6265584;22;20769;-77
2022/08/11 16:07:01;;;;;;;5.63;3.90;;;;;;;26.52;47.41;94668.72;6305240;22;20210;-78
2022/08/11 16:09:33;;;;;;;8.50;3.88;;;;;;;26.49;47.69;94666.69;6303399;22;20168;-77
2022/08/11 16:12:03;;;;;;;8.25;3.95;;;;;;;26.53;47.87;94664.94;6305261;22;20248;-77
2022/08/11 16:17:23;;;;;;;4.00;3.70;;;;;;;26.36;47.57;94664.97;6305654;22;20497;-80
2022/08/11 16:19:54;;;;;;;4.22;3.80;;;;;;;26.36;47.66;94671.09;6303901;22;20218;-80
2022/08/11 16:22:33;;;;;;;4.25;3.85;;;;;;;26.39;47.58;94673.13;6303714;22;20675;-81
2022/08/11 16:25:01;;;;;;;6.85;3.75;;;;;;;26.38;47.58;94666.22;6305511;22;20614;-81
2022/08/11 16:27:32;;;;;;;7.53;4.15;;;;;;;26.25;47.79;94663.75;6305214;22;20171;-81
2022/08/11 16:30:03;;;;;;;5.70;3.65;;;;;;;26.32;47.68;94670.16;6305168;22;20153;-80
2022/08/11 16:32:31;;;;;;;5.78;3.78;;;;;;;26.37;47.79;94669.22;6304694;22;20152;-79
2022/08/11 16:40:33;;;;;;;5.53;4.22;;;;;;;26.49;47.67;94675.47;6305041;22;20206;-80
2022/08/11 16:48:36;;;;;;;6.70;4.18;;;;;;;26.48;47.87;94687.25;6304354;22;20648;-81
2022/08/11 16:51:03;;;;;;;6.95;3.83;;;;;;;26.43;47.90;94684.75;6305037;22;20168;-80
2022/08/11 16:53:31;;;;;;;5.20;4.32;;;;;;;26.39;47.76;94686.47;6304934;22;20190;-80
2022/08/11 16:56:02;;;;;;;5.63;4.85;;;;;;;26.13;48.95;94688.34;6304824;22;20511;-80
2022/08/11 17:01:21;;;;;;;8.60;4.50;;;;;;;26.30;47.91;94692.91;6304771;22;20618;-80